sensor_id;sensor_type;location;lat;lon;timestamp;pressure;altitude;pressure_sealevel;temperature
80496;BMP180;69819;48.798;11.770;2023-05-07T00:00:38;97535.00;;;13.80
80496;BMP180;69819;48.798;11.770;2023-05-07T00:03:03;97528.00;;;13.70
80496;BMP180;69819;48.798;11.770;2023-05-07T00:05:29;97514.00;;;13.70
80496;BMP180;69819;48.798;11.770;2023-05-07T00:07:55;97529.00;;;13.70
80496;BMP180;69819;48.798;11.770;2023-05-07T00:10:21;97537.00;;;13.70
80496;BMP180;69819;48.798;11.770;2023-05-07T00:12:47;97535.00;;;13.60
80496;BMP180;69819;48.798;11.770;2023-05-07T00:15:13;97531.00;;;13.60
80496;BMP180;69819;48.798;11.770;2023-05-07T00:17:38;97524.00;;;13.60
80496;BMP180;69819;48.798;11.770;2023-05-07T00:20:05;97537.00;;;13.60
80496;BMP180;69819;48.798;11.770;2023-05-07T00:22:31;97500.00;;;13.50
80496;BMP180;69819;48.798;11.770;2023-05-07T00:24:58;97527.00;;;13.50
80496;BMP180;69819;48.798;11.770;2023-05-07T00:27:25;97473.00;;;13.50
80496;BMP180;69819;48.798;11.770;2023-05-07T00:29:51;97525.00;;;13.50
80496;BMP180;69819;48.798;11.770;2023-05-07T00:32:16;97509.00;;;13.50
80496;BMP180;69819;48.798;11.770;2023-05-07T00:34:43;97535.00;;;13.50
80496;BMP180;69819;48.798;11.770;2023-05-07T00:37:09;97521.00;;;13.40
80496;BMP180;69819;48.798;11.770;2023-05-07T00:39:35;97520.00;;;13.40
80496;BMP180;69819;48.798;11.770;2023-05-07T00:42:02;97523.00;;;13.20
80496;BMP180;69819;48.798;11.770;2023-05-07T00:44:29;97520.00;;;13.40
80496;BMP180;69819;48.798;11.770;2023-05-07T00:46:57;97529.00;;;13.30
80496;BMP180;69819;48.798;11.770;2023-05-07T00:49:43;97523.00;;;13.30
80496;BMP180;69819;48.798;11.770;2023-05-07T00:52:14;97521.00;;;13.30
80496;BMP180;69819;48.798;11.770;2023-05-07T00:54:42;97524.00;;;13.30
80496;BMP180;69819;48.798;11.770;2023-05-07T00:57:10;97504.00;;;13.20
80496;BMP180;69819;48.798;11.770;2023-05-07T00:59:37;97527.00;;;13.20
80496;BMP180;69819;48.798;11.770;2023-05-07T01:02:03;97499.00;;;13.20
80496;BMP180;69819;48.798;11.770;2023-05-07T01:04:29;97527.00;;;13.20
80496;BMP180;69819;48.798;11.770;2023-05-07T01:06:57;97520.00;;;13.20
80496;BMP180;69819;48.798;11.770;2023-05-07T01:09:26;97519.00;;;13.20
80496;BMP180;69819;48.798;11.770;2023-05-07T01:11:54;97530.00;;;13.10
80496;BMP180;69819;48.798;11.770;2023-05-07T01:14:21;97538.00;;;13.10
80496;BMP180;69819;48.798;11.770;2023-05-07T01:16:48;97530.00;;;13.10
80496;BMP180;69819;48.798;11.770;2023-05-07T01:19:18;97493.00;;;13.10
80496;BMP180;69819;48.798;11.770;2023-05-07T01:21:48;97510.00;;;13.10
80496;BMP180;69819;48.798;11.770;2023-05-07T01:24:15;97475.00;;;13.10
80496;BMP180;69819;48.798;11.770;2023-05-07T01:26:43;97513.00;;;13.10
80496;BMP180;69819;48.798;11.770;2023-05-07T01:29:09;97491.00;;;13.10
80496;BMP180;69819;48.798;11.770;2023-05-07T01:31:37;97523.00;;;13.00
80496;BMP180;69819;48.798;11.770;2023-05-07T01:34:04;97526.00;;;13.00
80496;BMP180;69819;48.798;11.770;2023-05-07T01:36:33;97519.00;;;13.00
80496;BMP180;69819;48.798;11.770;2023-05-07T01:38:59;97491.00;;;13.00
80496;BMP180;69819;48.798;11.770;2023-05-07T01:41:25;97499.00;;;12.90
80496;BMP180;69819;48.798;11.770;2023-05-07T01:43:53;97510.00;;;12.90
80496;BMP180;69819;48.798;11.770;2023-05-07T01:46:20;97495.00;;;12.90
80496;BMP180;69819;48.798;11.770;2023-05-07T01:48:46;97497.00;;;12.80
80496;BMP180;69819;48.798;11.770;2023-05-07T01:51:12;97525.00;;;12.80
80496;BMP180;69819;48.798;11.770;2023-05-07T01:53:39;97520.00;;;12.70
80496;BMP180;69819;48.798;11.770;2023-05-07T01:56:07;97515.00;;;12.70
80496;BMP180;69819;48.798;11.770;2023-05-07T01:58:33;97502.00;;;12.70
80496;BMP180;69819;48.798;11.770;2023-05-07T02:00:59;97474.00;;;12.70
80496;BMP180;69819;48.798;11.770;2023-05-07T02:03:25;97495.00;;;12.70
80496;BMP180;69819;48.798;11.770;2023-05-07T02:05:53;97511.00;;;12.60
80496;BMP180;69819;48.798;11.770;2023-05-07T02:08:19;97500.00;;;12.60
80496;BMP180;69819;48.798;11.770;2023-05-07T02:10:45;97502.00;;;12.60
80496;BMP180;69819;48.798;11.770;2023-05-07T02:13:11;97514.00;;;12.60
80496;BMP180;69819;48.798;11.770;2023-05-07T02:15:36;97504.00;;;12.60
80496;BMP180;69819;48.798;11.770;2023-05-07T02:18:08;97495.00;;;12.50
80496;BMP180;69819;48.798;11.770;2023-05-07T02:20:35;97502.00;;;12.50
80496;BMP180;69819;48.798;11.770;2023-05-07T02:23:00;97515.00;;;12.50
80496;BMP180;69819;48.798;11.770;2023-05-07T02:25:26;97492.00;;;12.50
80496;BMP180;69819;48.798;11.770;2023-05-07T02:27:52;97495.00;;;12.50
80496;BMP180;69819;48.798;11.770;2023-05-07T02:30:18;97511.00;;;12.50
80496;BMP180;69819;48.798;11.770;2023-05-07T02:32:45;97495.00;;;12.50
80496;BMP180;69819;48.798;11.770;2023-05-07T02:35:10;97445.00;;;12.50
80496;BMP180;69819;48.798;11.770;2023-05-07T02:37:36;97499.00;;;12.50
80496;BMP180;69819;48.798;11.770;2023-05-07T02:40:02;97509.00;;;12.50
80496;BMP180;69819;48.798;11.770;2023-05-07T02:42:29;97501.00;;;12.50
80496;BMP180;69819;48.798;11.770;2023-05-07T02:44:55;97518.00;;;12.50
80496;BMP180;69819;48.798;11.770;2023-05-07T02:47:21;97483.00;;;12.50
80496;BMP180;69819;48.798;11.770;2023-05-07T02:49:47;97518.00;;;12.50
80496;BMP180;69819;48.798;11.770;2023-05-07T02:52:13;97476.00;;;12.50
80496;BMP180;69819;48.798;11.770;2023-05-07T02:54:39;97491.00;;;12.50
80496;BMP180;69819;48.798;11.770;2023-05-07T02:57:05;97517.00;;;12.50
80496;BMP180;69819;48.798;11.770;2023-05-07T02:59:30;97463.00;;;12.50
80496;BMP180;69819;48.798;11.770;2023-05-07T03:01:56;97501.00;;;12.50
80496;BMP180;69819;48.798;11.770;2023-05-07T03:04:22;97474.00;;;12.50
80496;BMP180;69819;48.798;11.770;2023-05-07T03:06:48;97491.00;;;12.50
80496;BMP180;69819;48.798;11.770;2023-05-07T03:09:13;97476.00;;;12.50
80496;BMP180;69819;48.798;11.770;2023-05-07T03:11:39;97504.00;;;12.40
80496;BMP180;69819;48.798;11.770;2023-05-07T03:14:05;97511.00;;;12.50
80496;BMP180;69819;48.798;11.770;2023-05-07T03:16:31;97520.00;;;12.50
80496;BMP180;69819;48.798;11.770;2023-05-07T03:18:56;97495.00;;;12.50
80496;BMP180;69819;48.798;11.770;2023-05-07T03:21:22;97484.00;;;12.50
80496;BMP180;69819;48.798;11.770;2023-05-07T03:23:48;97484.00;;;12.40
80496;BMP180;69819;48.798;11.770;2023-05-07T03:26:14;97503.00;;;12.40
80496;BMP180;69819;48.798;11.770;2023-05-07T03:28:39;97480.00;;;12.40
80496;BMP180;69819;48.798;11.770;2023-05-07T03:31:05;97478.00;;;12.40
80496;BMP180;69819;48.798;11.770;2023-05-07T03:33:34;97498.00;;;12.40
80496;BMP180;69819;48.798;11.770;2023-05-07T03:36:01;97495.00;;;12.40
80496;BMP180;69819;48.798;11.770;2023-05-07T03:38:27;97505.00;;;12.40
80496;BMP180;69819;48.798;11.770;2023-05-07T03:40:53;97503.00;;;12.40
80496;BMP180;69819;48.798;11.770;2023-05-07T03:43:18;97517.00;;;12.40
80496;BMP180;69819;48.798;11.770;2023-05-07T03:45:44;97510.00;;;12.40
80496;BMP180;69819;48.798;11.770;2023-05-07T03:48:10;97524.00;;;12.40
80496;BMP180;69819;48.798;11.770;2023-05-07T03:50:37;97531.00;;;12.40
80496;BMP180;69819;48.798;11.770;2023-05-07T03:53:03;97521.00;;;12.40
80496;BMP180;69819;48.798;11.770;2023-05-07T03:55:29;97531.00;;;12.40
80496;BMP180;69819;48.798;11.770;2023-05-07T03:57:55;97516.00;;;12.40
80496;BMP180;69819;48.798;11.770;2023-05-07T04:00:22;97535.00;;;12.50
80496;BMP180;69819;48.798;11.770;2023-05-07T04:02:48;97529.00;;;12.50
80496;BMP180;69819;48.798;11.770;2023-05-07T04:05:14;97529.00;;;12.60
80496;BMP180;69819;48.798;11.770;2023-05-07T04:07:41;97538.00;;;12.70
80496;BMP180;69819;48.798;11.770;2023-05-07T04:10:07;97543.00;;;12.80
80496;BMP180;69819;48.798;11.770;2023-05-07T04:12:33;97534.00;;;12.80
80496;BMP180;69819;48.798;11.770;2023-05-07T04:14:59;97536.00;;;12.90
80496;BMP180;69819;48.798;11.770;2023-05-07T04:17:25;97515.00;;;12.90
80496;BMP180;69819;48.798;11.770;2023-05-07T04:19:50;97529.00;;;13.00
80496;BMP180;69819;48.798;11.770;2023-05-07T04:22:16;97525.00;;;13.00
80496;BMP180;69819;48.798;11.770;2023-05-07T04:24:42;97521.00;;;13.10
80496;BMP180;69819;48.798;11.770;2023-05-07T04:27:07;97521.00;;;13.20
80496;BMP180;69819;48.798;11.770;2023-05-07T04:29:33;97513.00;;;13.20
80496;BMP180;69819;48.798;11.770;2023-05-07T04:31:59;97522.00;;;13.30
80496;BMP180;69819;48.798;11.770;2023-05-07T04:34:25;97512.00;;;13.40
80496;BMP180;69819;48.798;11.770;2023-05-07T04:36:50;97533.00;;;13.40
80496;BMP180;69819;48.798;11.770;2023-05-07T04:39:16;97540.00;;;13.50
80496;BMP180;69819;48.798;11.770;2023-05-07T04:41:42;97532.00;;;13.60
80496;BMP180;69819;48.798;11.770;2023-05-07T04:44:08;97509.00;;;13.60
80496;BMP180;69819;48.798;11.770;2023-05-07T04:46:34;97534.00;;;13.70
80496;BMP180;69819;48.798;11.770;2023-05-07T04:49:00;97527.00;;;13.80
80496;BMP180;69819;48.798;11.770;2023-05-07T04:51:26;97519.00;;;13.80
80496;BMP180;69819;48.798;11.770;2023-05-07T04:53:52;97540.00;;;13.90
80496;BMP180;69819;48.798;11.770;2023-05-07T04:56:17;97541.00;;;14.00
80496;BMP180;69819;48.798;11.770;2023-05-07T04:58:43;97546.00;;;14.10
80496;BMP180;69819;48.798;11.770;2023-05-07T05:01:09;97537.00;;;14.20
80496;BMP180;69819;48.798;11.770;2023-05-07T05:03:34;97531.00;;;14.30
80496;BMP180;69819;48.798;11.770;2023-05-07T05:06:00;97542.00;;;14.40
80496;BMP180;69819;48.798;11.770;2023-05-07T05:08:26;97542.00;;;14.50
80496;BMP180;69819;48.798;11.770;2023-05-07T05:10:52;97526.00;;;14.60
80496;BMP180;69819;48.798;11.770;2023-05-07T05:13:17;97522.00;;;14.80
80496;BMP180;69819;48.798;11.770;2023-05-07T05:15:43;97547.00;;;14.90
80496;BMP180;69819;48.798;11.770;2023-05-07T05:18:09;97560.00;;;15.00
80496;BMP180;69819;48.798;11.770;2023-05-07T05:20:35;97539.00;;;15.20
80496;BMP180;69819;48.798;11.770;2023-05-07T05:23:00;97531.00;;;15.30
80496;BMP180;69819;48.798;11.770;2023-05-07T05:25:26;97554.00;;;15.50
80496;BMP180;69819;48.798;11.770;2023-05-07T05:27:53;97568.00;;;15.70
80496;BMP180;69819;48.798;11.770;2023-05-07T05:30:20;97571.00;;;15.90
80496;BMP180;69819;48.798;11.770;2023-05-07T05:32:45;97567.00;;;16.10
80496;BMP180;69819;48.798;11.770;2023-05-07T05:35:11;97572.00;;;16.20
80496;BMP180;69819;48.798;11.770;2023-05-07T05:37:37;97574.00;;;16.40
80496;BMP180;69819;48.798;11.770;2023-05-07T05:40:03;97568.00;;;16.60
80496;BMP180;69819;48.798;11.770;2023-05-07T05:42:32;97552.00;;;16.70
80496;BMP180;69819;48.798;11.770;2023-05-07T05:45:00;97547.00;;;17.00
80496;BMP180;69819;48.798;11.770;2023-05-07T05:47:26;97565.00;;;17.20
80496;BMP180;69819;48.798;11.770;2023-05-07T05:49:52;97544.00;;;17.60
80496;BMP180;69819;48.798;11.770;2023-05-07T05:52:18;97532.00;;;18.10
80496;BMP180;69819;48.798;11.770;2023-05-07T05:54:43;97549.00;;;18.90
80496;BMP180;69819;48.798;11.770;2023-05-07T05:57:09;97558.00;;;19.70
80496;BMP180;69819;48.798;11.770;2023-05-07T05:59:35;97559.00;;;20.60
80496;BMP180;69819;48.798;11.770;2023-05-07T06:02:01;97544.00;;;21.50
80496;BMP180;69819;48.798;11.770;2023-05-07T06:04:27;97566.00;;;22.30
80496;BMP180;69819;48.798;11.770;2023-05-07T06:06:52;97556.00;;;23.00
80496;BMP180;69819;48.798;11.770;2023-05-07T06:09:22;97572.00;;;23.60
80496;BMP180;69819;48.798;11.770;2023-05-07T06:11:47;97548.00;;;24.20
80496;BMP180;69819;48.798;11.770;2023-05-07T06:14:13;97572.00;;;24.70
80496;BMP180;69819;48.798;11.770;2023-05-07T06:16:39;97564.00;;;25.10
80496;BMP180;69819;48.798;11.770;2023-05-07T06:19:05;97588.00;;;25.50
80496;BMP180;69819;48.798;11.770;2023-05-07T06:21:31;97572.00;;;25.90
80496;BMP180;69819;48.798;11.770;2023-05-07T06:23:56;97586.00;;;26.10
80496;BMP180;69819;48.798;11.770;2023-05-07T06:26:22;97584.00;;;26.40
80496;BMP180;69819;48.798;11.770;2023-05-07T06:28:48;97594.00;;;26.60
80496;BMP180;69819;48.798;11.770;2023-05-07T06:31:19;97595.00;;;26.90
80496;BMP180;69819;48.798;11.770;2023-05-07T06:33:49;97584.00;;;27.30
80496;BMP180;69819;48.798;11.770;2023-05-07T06:36:15;97605.00;;;27.70
80496;BMP180;69819;48.798;11.770;2023-05-07T06:38:41;97584.00;;;28.10
80496;BMP180;69819;48.798;11.770;2023-05-07T06:41:07;97607.00;;;28.40
80496;BMP180;69819;48.798;11.770;2023-05-07T06:43:33;97607.00;;;28.70
80496;BMP180;69819;48.798;11.770;2023-05-07T06:45:59;97607.00;;;28.90
80496;BMP180;69819;48.798;11.770;2023-05-07T06:48:25;97608.00;;;29.20
80496;BMP180;69819;48.798;11.770;2023-05-07T06:50:50;97612.00;;;29.50
80496;BMP180;69819;48.798;11.770;2023-05-07T06:53:16;97613.00;;;29.80
80496;BMP180;69819;48.798;11.770;2023-05-07T06:55:42;97622.00;;;30.00
80496;BMP180;69819;48.798;11.770;2023-05-07T06:58:08;97615.00;;;30.20
80496;BMP180;69819;48.798;11.770;2023-05-07T07:00:33;97606.00;;;30.20
80496;BMP180;69819;48.798;11.770;2023-05-07T07:03:00;97608.00;;;30.20
80496;BMP180;69819;48.798;11.770;2023-05-07T07:05:26;97623.00;;;30.30
80496;BMP180;69819;48.798;11.770;2023-05-07T07:07:51;97623.00;;;30.50
80496;BMP180;69819;48.798;11.770;2023-05-07T07:10:21;97633.00;;;30.60
80496;BMP180;69819;48.798;11.770;2023-05-07T07:12:46;97618.00;;;30.60
80496;BMP180;69819;48.798;11.770;2023-05-07T07:15:13;97637.00;;;30.30
80496;BMP180;69819;48.798;11.770;2023-05-07T07:17:39;97619.00;;;29.80
80496;BMP180;69819;48.798;11.770;2023-05-07T07:20:06;97639.00;;;29.40
80496;BMP180;69819;48.798;11.770;2023-05-07T07:22:32;97619.00;;;29.00
80496;BMP180;69819;48.798;11.770;2023-05-07T07:24:58;97629.00;;;28.70
80496;BMP180;69819;48.798;11.770;2023-05-07T07:27:23;97634.00;;;28.80
80496;BMP180;69819;48.798;11.770;2023-05-07T07:29:49;97621.00;;;29.10
80496;BMP180;69819;48.798;11.770;2023-05-07T07:32:15;97629.00;;;29.50
80496;BMP180;69819;48.798;11.770;2023-05-07T07:34:41;97628.00;;;29.90
80496;BMP180;69819;48.798;11.770;2023-05-07T07:37:07;97625.00;;;30.40
80496;BMP180;69819;48.798;11.770;2023-05-07T07:39:33;97628.00;;;30.80
80496;BMP180;69819;48.798;11.770;2023-05-07T07:41:59;97625.00;;;31.10
80496;BMP180;69819;48.798;11.770;2023-05-07T07:44:27;97624.00;;;31.30
80496;BMP180;69819;48.798;11.770;2023-05-07T07:46:53;97639.00;;;31.30
80496;BMP180;69819;48.798;11.770;2023-05-07T07:49:19;97650.00;;;31.40
80496;BMP180;69819;48.798;11.770;2023-05-07T07:51:45;97630.00;;;31.50
80496;BMP180;69819;48.798;11.770;2023-05-07T07:54:11;97631.00;;;31.60
80496;BMP180;69819;48.798;11.770;2023-05-07T07:56:38;97646.00;;;31.70
80496;BMP180;69819;48.798;11.770;2023-05-07T07:59:04;97632.00;;;31.90
80496;BMP180;69819;48.798;11.770;2023-05-07T08:01:30;97657.00;;;32.10
80496;BMP180;69819;48.798;11.770;2023-05-07T08:03:56;97641.00;;;32.30
80496;BMP180;69819;48.798;11.770;2023-05-07T08:06:24;97649.00;;;32.60
80496;BMP180;69819;48.798;11.770;2023-05-07T08:08:54;97657.00;;;32.80
80496;BMP180;69819;48.798;11.770;2023-05-07T08:11:20;97651.00;;;33.10
80496;BMP180;69819;48.798;11.770;2023-05-07T08:13:47;97653.00;;;33.30
80496;BMP180;69819;48.798;11.770;2023-05-07T08:16:13;97650.00;;;33.60
80496;BMP180;69819;48.798;11.770;2023-05-07T08:18:39;97664.00;;;33.80
80496;BMP180;69819;48.798;11.770;2023-05-07T08:21:05;97645.00;;;34.00
80496;BMP180;69819;48.798;11.770;2023-05-07T08:23:31;97665.00;;;34.10
80496;BMP180;69819;48.798;11.770;2023-05-07T08:25:57;97667.00;;;34.20
80496;BMP180;69819;48.798;11.770;2023-05-07T08:28:23;97678.00;;;34.40
80496;BMP180;69819;48.798;11.770;2023-05-07T08:30:50;97661.00;;;34.50
80496;BMP180;69819;48.798;11.770;2023-05-07T08:33:16;97669.00;;;34.60
80496;BMP180;69819;48.798;11.770;2023-05-07T08:35:42;97648.00;;;34.60
80496;BMP180;69819;48.798;11.770;2023-05-07T08:38:08;97648.00;;;34.70
80496;BMP180;69819;48.798;11.770;2023-05-07T08:40:39;97639.00;;;34.80
80496;BMP180;69819;48.798;11.770;2023-05-07T08:43:07;97645.00;;;34.90
80496;BMP180;69819;48.798;11.770;2023-05-07T08:45:34;97660.00;;;35.00
80496;BMP180;69819;48.798;11.770;2023-05-07T08:48:05;97651.00;;;35.10
80496;BMP180;69819;48.798;11.770;2023-05-07T08:50:36;97665.00;;;35.10
80496;BMP180;69819;48.798;11.770;2023-05-07T08:53:04;97654.00;;;35.10
80496;BMP180;69819;48.798;11.770;2023-05-07T08:55:31;97666.00;;;35.10
80496;BMP180;69819;48.798;11.770;2023-05-07T08:57:59;97668.00;;;35.10
80496;BMP180;69819;48.798;11.770;2023-05-07T09:00:25;97673.00;;;34.90
80496;BMP180;69819;48.798;11.770;2023-05-07T09:02:53;97659.00;;;34.70
80496;BMP180;69819;48.798;11.770;2023-05-07T09:05:19;97662.00;;;34.50
80496;BMP180;69819;48.798;11.770;2023-05-07T09:07:45;97653.00;;;34.50
80496;BMP180;69819;48.798;11.770;2023-05-07T09:10:12;97654.00;;;34.50
80496;BMP180;69819;48.798;11.770;2023-05-07T09:12:39;97666.00;;;34.50
80496;BMP180;69819;48.798;11.770;2023-05-07T09:15:06;97667.00;;;34.60
80496;BMP180;69819;48.798;11.770;2023-05-07T09:17:34;97654.00;;;34.60
80496;BMP180;69819;48.798;11.770;2023-05-07T09:20:06;97652.00;;;34.60
80496;BMP180;69819;48.798;11.770;2023-05-07T09:22:35;97640.00;;;34.50
80496;BMP180;69819;48.798;11.770;2023-05-07T09:25:01;97657.00;;;34.40
80496;BMP180;69819;48.798;11.770;2023-05-07T09:27:27;97667.00;;;34.30
80496;BMP180;69819;48.798;11.770;2023-05-07T09:29:53;97635.00;;;34.20
80496;BMP180;69819;48.798;11.770;2023-05-07T09:32:19;97659.00;;;34.10
80496;BMP180;69819;48.798;11.770;2023-05-07T09:34:44;97649.00;;;34.00
80496;BMP180;69819;48.798;11.770;2023-05-07T09:37:13;97666.00;;;33.90
80496;BMP180;69819;48.798;11.770;2023-05-07T09:39:40;97666.00;;;33.70
80496;BMP180;69819;48.798;11.770;2023-05-07T09:42:06;97651.00;;;33.50
80496;BMP180;69819;48.798;11.770;2023-05-07T09:44:34;97651.00;;;33.30
80496;BMP180;69819;48.798;11.770;2023-05-07T09:47:04;97656.00;;;33.00
80496;BMP180;69819;48.798;11.770;2023-05-07T09:49:34;97653.00;;;32.70
80496;BMP180;69819;48.798;11.770;2023-05-07T09:52:02;97658.00;;;32.40
80496;BMP180;69819;48.798;11.770;2023-05-07T09:54:29;97654.00;;;32.10
80496;BMP180;69819;48.798;11.770;2023-05-07T09:56:55;97657.00;;;31.90
80496;BMP180;69819;48.798;11.770;2023-05-07T09:59:22;97643.00;;;31.70
80496;BMP180;69819;48.798;11.770;2023-05-07T10:01:50;97654.00;;;31.50
80496;BMP180;69819;48.798;11.770;2023-05-07T10:04:18;97649.00;;;31.30
80496;BMP180;69819;48.798;11.770;2023-05-07T10:06:46;97628.00;;;31.00
80496;BMP180;69819;48.798;11.770;2023-05-07T10:09:13;97643.00;;;30.80
80496;BMP180;69819;48.798;11.770;2023-05-07T10:11:41;97644.00;;;30.60
80496;BMP180;69819;48.798;11.770;2023-05-07T10:14:07;97660.00;;;30.50
80496;BMP180;69819;48.798;11.770;2023-05-07T10:16:36;97651.00;;;30.30
80496;BMP180;69819;48.798;11.770;2023-05-07T10:19:09;97634.00;;;30.10
80496;BMP180;69819;48.798;11.770;2023-05-07T10:21:48;97640.00;;;29.90
80496;BMP180;69819;48.798;11.770;2023-05-07T10:24:29;97630.00;;;29.70
80496;BMP180;69819;48.798;11.770;2023-05-07T10:26:56;97641.00;;;29.60
80496;BMP180;69819;48.798;11.770;2023-05-07T10:30:04;97654.00;;;29.40
80496;BMP180;69819;48.798;11.770;2023-05-07T10:32:48;97653.00;;;29.30
80496;BMP180;69819;48.798;11.770;2023-05-07T10:35:20;97627.00;;;29.10
80496;BMP180;69819;48.798;11.770;2023-05-07T10:37:48;97626.00;;;29.00
80496;BMP180;69819;48.798;11.770;2023-05-07T10:40:14;97628.00;;;28.80
80496;BMP180;69819;48.798;11.770;2023-05-07T10:42:54;97622.00;;;28.50
80496;BMP180;69819;48.798;11.770;2023-05-07T10:45:22;97626.00;;;28.30
80496;BMP180;69819;48.798;11.770;2023-05-07T10:48:16;97625.00;;;28.00
80496;BMP180;69819;48.798;11.770;2023-05-07T10:50:45;97594.00;;;27.80
80496;BMP180;69819;48.798;11.770;2023-05-07T10:55:52;97612.00;;;27.30
80496;BMP180;69819;48.798;11.770;2023-05-07T10:58:37;97606.00;;;27.00
80496;BMP180;69819;48.798;11.770;2023-05-07T11:01:03;97606.00;;;26.70
80496;BMP180;69819;48.798;11.770;2023-05-07T11:03:29;97622.00;;;26.50
80496;BMP180;69819;48.798;11.770;2023-05-07T11:08:57;97610.00;;;26.20
80496;BMP180;69819;48.798;11.770;2023-05-07T11:11:50;97610.00;;;26.10
80496;BMP180;69819;48.798;11.770;2023-05-07T11:17:10;97599.00;;;26.20
80496;BMP180;69819;48.798;11.770;2023-05-07T11:19:55;97628.00;;;26.20
80496;BMP180;69819;48.798;11.770;2023-05-07T11:22:48;97623.00;;;26.20
80496;BMP180;69819;48.798;11.770;2023-05-07T11:25:22;97609.00;;;26.20
80496;BMP180;69819;48.798;11.770;2023-05-07T11:27:48;97598.00;;;26.20
80496;BMP180;69819;48.798;11.770;2023-05-07T11:30:17;97611.00;;;26.10
80496;BMP180;69819;48.798;11.770;2023-05-07T11:32:48;97614.00;;;26.00
80496;BMP180;69819;48.798;11.770;2023-05-07T11:35:15;97569.00;;;26.00
80496;BMP180;69819;48.798;11.770;2023-05-07T11:37:44;97592.00;;;26.00
80496;BMP180;69819;48.798;11.770;2023-05-07T11:40:11;97605.00;;;25.90
80496;BMP180;69819;48.798;11.770;2023-05-07T11:42:40;97603.00;;;25.90
80496;BMP180;69819;48.798;11.770;2023-05-07T11:45:08;97571.00;;;25.90
80496;BMP180;69819;48.798;11.770;2023-05-07T11:47:35;97604.00;;;25.90
80496;BMP180;69819;48.798;11.770;2023-05-07T11:50:07;97583.00;;;25.90
80496;BMP180;69819;48.798;11.770;2023-05-07T11:52:33;97597.00;;;26.00
80496;BMP180;69819;48.798;11.770;2023-05-07T11:55:01;97607.00;;;26.10
80496;BMP180;69819;48.798;11.770;2023-05-07T11:57:27;97609.00;;;26.10
80496;BMP180;69819;48.798;11.770;2023-05-07T11:59:59;97612.00;;;26.20
80496;BMP180;69819;48.798;11.770;2023-05-07T12:02:25;97592.00;;;26.20
80496;BMP180;69819;48.798;11.770;2023-05-07T12:04:52;97586.00;;;26.20
80496;BMP180;69819;48.798;11.770;2023-05-07T12:07:18;97600.00;;;26.20
80496;BMP180;69819;48.798;11.770;2023-05-07T12:09:45;97608.00;;;26.20
80496;BMP180;69819;48.798;11.770;2023-05-07T12:12:11;97599.00;;;26.10
80496;BMP180;69819;48.798;11.770;2023-05-07T12:14:43;97593.00;;;26.10
80496;BMP180;69819;48.798;11.770;2023-05-07T12:17:12;97610.00;;;26.10
80496;BMP180;69819;48.798;11.770;2023-05-07T12:19:41;97602.00;;;26.20
80496;BMP180;69819;48.798;11.770;2023-05-07T12:22:10;97583.00;;;26.20
80496;BMP180;69819;48.798;11.770;2023-05-07T12:24:50;97604.00;;;26.20
80496;BMP180;69819;48.798;11.770;2023-05-07T12:27:21;97599.00;;;26.00
80496;BMP180;69819;48.798;11.770;2023-05-07T12:29:49;97591.00;;;26.00
80496;BMP180;69819;48.798;11.770;2023-05-07T12:32:21;97607.00;;;26.00
80496;BMP180;69819;48.798;11.770;2023-05-07T12:34:50;97581.00;;;26.00
80496;BMP180;69819;48.798;11.770;2023-05-07T12:37:16;97579.00;;;26.00
80496;BMP180;69819;48.798;11.770;2023-05-07T12:40:03;97588.00;;;26.00
80496;BMP180;69819;48.798;11.770;2023-05-07T12:42:36;97598.00;;;25.90
80496;BMP180;69819;48.798;11.770;2023-05-07T12:45:15;97583.00;;;25.90
80496;BMP180;69819;48.798;11.770;2023-05-07T12:47:45;97573.00;;;25.90
80496;BMP180;69819;48.798;11.770;2023-05-07T12:50:11;97563.00;;;25.90
80496;BMP180;69819;48.798;11.770;2023-05-07T12:52:37;97574.00;;;25.80
80496;BMP180;69819;48.798;11.770;2023-05-07T12:55:08;97579.00;;;25.80
80496;BMP180;69819;48.798;11.770;2023-05-07T12:57:51;97566.00;;;25.70
80496;BMP180;69819;48.798;11.770;2023-05-07T13:00:36;97550.00;;;25.60
80496;BMP180;69819;48.798;11.770;2023-05-07T13:03:02;97558.00;;;25.60
80496;BMP180;69819;48.798;11.770;2023-05-07T13:05:28;97555.00;;;25.60
80496;BMP180;69819;48.798;11.770;2023-05-07T13:07:55;97556.00;;;25.50
80496;BMP180;69819;48.798;11.770;2023-05-07T13:10:25;97551.00;;;25.50
80496;BMP180;69819;48.798;11.770;2023-05-07T13:12:51;97552.00;;;25.50
80496;BMP180;69819;48.798;11.770;2023-05-07T13:15:18;97554.00;;;25.60
80496;BMP180;69819;48.798;11.770;2023-05-07T13:17:44;97550.00;;;25.60
80496;BMP180;69819;48.798;11.770;2023-05-07T13:20:11;97516.00;;;25.60
80496;BMP180;69819;48.798;11.770;2023-05-07T13:22:39;97529.00;;;25.60
80496;BMP180;69819;48.798;11.770;2023-05-07T13:25:06;97530.00;;;25.70
80496;BMP180;69819;48.798;11.770;2023-05-07T13:27:32;97532.00;;;25.70
80496;BMP180;69819;48.798;11.770;2023-05-07T13:30:01;97526.00;;;25.70
80496;BMP180;69819;48.798;11.770;2023-05-07T13:32:26;97532.00;;;25.70
80496;BMP180;69819;48.798;11.770;2023-05-07T13:34:52;97539.00;;;25.80
80496;BMP180;69819;48.798;11.770;2023-05-07T13:37:18;97516.00;;;25.80
80496;BMP180;69819;48.798;11.770;2023-05-07T13:39:44;97544.00;;;25.80
80496;BMP180;69819;48.798;11.770;2023-05-07T13:42:10;97533.00;;;25.80
80496;BMP180;69819;48.798;11.770;2023-05-07T13:44:35;97523.00;;;25.80
80496;BMP180;69819;48.798;11.770;2023-05-07T13:47:01;97528.00;;;25.80
80496;BMP180;69819;48.798;11.770;2023-05-07T13:49:27;97539.00;;;25.80
80496;BMP180;69819;48.798;11.770;2023-05-07T13:51:53;97539.00;;;25.80
80496;BMP180;69819;48.798;11.770;2023-05-07T13:54:19;97516.00;;;25.80
80496;BMP180;69819;48.798;11.770;2023-05-07T13:56:45;97540.00;;;25.80
80496;BMP180;69819;48.798;11.770;2023-05-07T13:59:10;97535.00;;;25.80
80496;BMP180;69819;48.798;11.770;2023-05-07T14:01:36;97517.00;;;25.80
80496;BMP180;69819;48.798;11.770;2023-05-07T14:04:02;97516.00;;;25.80
80496;BMP180;69819;48.798;11.770;2023-05-07T14:06:28;97537.00;;;25.80